Time;durP1;ratioP1;P1;durP2;ratioP2;P2;SDS_P1;SDS_P2;PMS_P1;PMS_P2;Temp;Humidity;BMP_temperature;BMP_pressure;BME280_temperature;BME280_humidity;BME280_pressure;Samples;Min_cycle;Max_cycle;Signal;HPM_P1;HPM_P2
2021/12/16 00:02:05;;;;;;;32.20;22.00;;;3.30;99.90;;;;;;5091208;28;20214;-90
2021/12/16 00:07:30;;;;;;;27.30;21.03;;;3.30;99.90;;;;;;5090139;28;20242;-90
2021/12/16 00:29:30;;;;;;;27.53;19.30;;;2.80;99.90;;;;;;5091555;28;20185;-90
2021/12/16 00:31:47;;;;;;;26.17;19.47;;;2.80;99.90;;;;;;5089859;28;20228;-90
2021/12/16 00:34:15;;;;;;;23.47;18.60;;;2.70;99.90;;;;;;5090365;28;20178;-89
2021/12/16 00:36:43;;;;;;;25.57;19.43;;;2.60;99.90;;;;;;5090217;28;20677;-90
2021/12/16 00:39:27;;;;;;;23.13;19.33;;;2.70;99.90;;;;;;5073082;28;20179;-89
2021/12/16 00:41:59;;;;;;;24.67;19.13;;;2.80;99.90;;;;;;5102069;28;20168;-89
2021/12/16 00:47:25;;;;;;;22.27;18.13;;;2.80;99.90;;;;;;5121132;28;20169;-90
2021/12/16 00:49:50;;;;;;;27.87;19.57;;;2.70;99.90;;;;;;5110003;28;20209;-90
2021/12/16 00:57:48;;;;;;;26.00;19.57;;;2.60;99.90;;;;;;5098008;28;20219;-91
2021/12/16 01:00:16;;;;;;;21.73;18.23;;;2.60;99.90;;;;;;5078765;28;20181;-90
2021/12/16 01:40:41;;;;;;;18.10;16.03;;;2.50;99.90;;;;;;5093266;28;20166;-91
2021/12/16 01:50:32;;;;;;;20.40;16.87;;;2.80;99.90;;;;;;5092707;28;20554;-91
2021/12/16 01:55:47;;;;;;;22.00;17.00;;;2.90;99.90;;;;;;5092434;28;20573;-89
2021/12/16 01:58:26;;;;;;;20.60;16.13;;;2.90;99.90;;;;;;5074179;28;20268;-90
2021/12/16 02:01:16;;;;;;;19.97;16.20;;;3.00;99.90;;;;;;5074614;28;20273;-90
2021/12/16 02:03:55;;;;;;;19.10;15.80;;;3.00;99.90;;;;;;5074496;28;20186;-91
2021/12/16 02:09:08;;;;;;;24.43;17.17;;;3.00;99.90;;;;;;5093258;28;20678;-90
2021/12/16 02:36:00;;;;;;;19.63;16.97;;;2.80;99.90;;;;;;5095624;28;20224;-90
2021/12/16 02:38:31;;;;;;;21.90;16.97;;;2.70;99.90;;;;;;5074882;28;20183;-90
2021/12/16 02:40:58;;;;;;;19.40;16.23;;;2.70;99.90;;;;;;5073771;28;20587;-90
2021/12/16 02:48:43;;;;;;;20.40;17.03;;;2.60;99.90;;;;;;5092496;28;20184;-91
2021/12/16 02:51:23;;;;;;;19.53;15.80;;;2.60;99.90;;;;;;5073852;28;20216;-90
2021/12/16 02:53:56;;;;;;;23.10;17.00;;;2.60;99.90;;;;;;5075711;28;20189;-89
2021/12/16 02:56:22;;;;;;;18.07;16.03;;;2.50;99.90;;;;;;5079608;28;20646;-90
2021/12/16 02:58:52;;;;;;;17.70;15.70;;;2.60;99.90;;;;;;5092332;28;20169;-90
2021/12/16 03:01:33;;;;;;;20.87;17.33;;;2.50;99.90;;;;;;5091590;28;20164;-90
2021/12/16 03:04:06;;;;;;;20.53;16.93;;;2.30;99.90;;;;;;5091519;28;20154;-90
2021/12/16 03:06:33;;;;;;;18.50;16.13;;;2.30;99.90;;;;;;5069043;28;20218;-90
2021/12/16 03:09:02;;;;;;;19.07;16.60;;;2.30;99.90;;;;;;5069708;28;20177;-91
2021/12/16 03:19:14;;;;;;;21.10;17.57;;;2.20;99.90;;;;;;5072203;28;20620;-91
2021/12/16 03:21:46;;;;;;;19.50;17.23;;;2.10;99.90;;;;;;5069957;28;20190;-90
2021/12/16 03:37:56;;;;;;;18.97;16.50;;;2.00;99.90;;;;;;5067904;28;20239;-91
2021/12/16 03:40:22;;;;;;;19.67;17.33;;;2.00;99.90;;;;;;5069146;28;20640;-90
2021/12/16 03:42:52;;;;;;;19.97;17.50;;;2.00;99.90;;;;;;5070189;28;20204;-90
2021/12/16 03:48:36;;;;;;;23.00;17.30;;;1.90;99.90;;;;;;5070457;28;20192;-90
2021/12/16 03:51:08;;;;;;;22.57;16.70;;;1.90;99.90;;;;;;5068822;28;20217;-90
2021/12/16 03:53:34;;;;;;;20.13;16.70;;;1.80;99.90;;;;;;5070471;28;20160;-89
2021/12/16 03:56:01;;;;;;;19.00;16.43;;;1.90;99.90;;;;;;5069224;28;20238;-89
2021/12/16 03:58:27;;;;;;;20.27;17.27;;;1.80;99.90;;;;;;5070945;28;20279;-91
2021/12/16 04:00:57;;;;;;;20.47;16.70;;;1.90;99.90;;;;;;5069016;28;20584;-90
2021/12/16 04:03:23;;;;;;;20.57;16.93;;;1.90;99.90;;;;;;5070409;28;20157;-89
2021/12/16 04:05:50;;;;;;;21.40;16.33;;;2.00;99.90;;;;;;5072627;28;20176;-90
2021/12/16 04:08:16;;;;;;;19.60;15.03;;;2.00;99.90;;;;;;5072694;28;20245;-90
2021/12/16 04:11:18;;;;;;;18.77;15.80;;;2.00;99.90;;;;;;5072822;28;20231;-91
2021/12/16 04:13:54;;;;;;;19.33;16.17;;;2.00;99.90;;;;;;5080331;28;20179;-91
2021/12/16 04:16:23;;;;;;;23.23;16.33;;;1.90;99.90;;;;;;5096038;28;20159;-90
2021/12/16 04:18:49;;;;;;;16.03;14.33;;;1.80;99.90;;;;;;5114733;28;20214;-90
2021/12/16 04:21:19;;;;;;;18.57;15.37;;;1.90;99.90;;;;;;5079807;28;20203;-90
2021/12/16 04:23:46;;;;;;;21.20;16.40;;;1.90;99.90;;;;;;5096614;28;20246;-90
2021/12/16 04:26:13;;;;;;;20.90;17.40;;;2.00;99.90;;;;;;5094817;28;20176;-91
2021/12/16 04:28:39;;;;;;;18.37;15.90;;;1.90;99.90;;;;;;5076182;28;20183;-89
2021/12/16 04:31:04;;;;;;;17.90;14.03;;;1.90;99.90;;;;;;5094212;28;20596;-89
2021/12/16 04:33:30;;;;;;;17.33;15.03;;;2.00;99.90;;;;;;5075779;28;20184;-90
2021/12/16 04:35:56;;;;;;;18.93;15.53;;;1.90;99.90;;;;;;5076119;28;20180;-90
2021/12/16 04:38:25;;;;;;;17.20;14.47;;;2.00;99.90;;;;;;5094126;28;20761;-89
2021/12/16 04:40:51;;;;;;;9.30;8.40;;;1.90;99.90;;;;;;5094085;28;20816;-90
2021/12/16 04:43:21;;;;;;;8.17;7.37;;;1.90;99.90;;;;;;5094220;28;20259;-89
2021/12/16 04:45:49;;;;;;;10.27;9.00;;;1.90;99.90;;;;;;5094113;28;20176;-90
2021/12/16 04:48:15;;;;;;;13.40;11.33;;;2.00;99.90;;;;;;5093885;28;20258;-90
2021/12/16 04:50:41;;;;;;;9.30;8.27;;;2.10;99.90;;;;;;5075798;28;20217;-91
2021/12/16 04:53:07;;;;;;;9.90;8.90;;;2.00;99.90;;;;;;5093635;28;20170;-91
2021/12/16 04:55:33;;;;;;;11.30;9.60;;;2.10;99.90;;;;;;5093874;28;20180;-89
2021/12/16 04:57:59;;;;;;;10.37;8.93;;;2.10;99.90;;;;;;5075701;28;20518;-90
2021/12/16 05:00:25;;;;;;;10.70;9.60;;;2.20;99.90;;;;;;5093750;28;20205;-91
2021/12/16 05:02:51;;;;;;;12.77;11.20;;;2.20;99.90;;;;;;5106507;28;20228;-90
2021/12/16 05:05:17;;;;;;;17.33;13.97;;;2.20;99.90;;;;;;5100727;28;20214;-90
2021/12/16 05:07:47;;;;;;;13.17;11.70;;;2.20;99.90;;;;;;5083634;28;20238;-89
2021/12/16 05:10:14;;;;;;;19.03;14.10;;;2.20;99.90;;;;;;5079179;28;20205;-90
2021/12/16 05:12:54;;;;;;;16.37;13.00;;;2.20;99.90;;;;;;5082619;28;20196;-91
2021/12/16 05:15:26;;;;;;;21.37;15.03;;;2.10;99.90;;;;;;5076165;28;20159;-90
2021/12/16 05:17:54;;;;;;;17.80;14.80;;;2.00;99.90;;;;;;5074453;28;20637;-89
2021/12/16 05:20:43;;;;;;;19.00;15.00;;;2.10;99.90;;;;;;5072497;28;20811;-90
2021/12/16 05:26:37;;;;;;;17.83;15.93;;;2.00;99.90;;;;;;5074387;28;20655;-90
2021/12/16 05:28:56;;;;;;;18.50;15.73;;;1.90;99.90;;;;;;5067475;28;20191;-90
2021/12/16 05:31:24;;;;;;;18.17;15.87;;;1.90;99.90;;;;;;5072345;28;20206;-90
2021/12/16 05:33:53;;;;;;;23.87;16.97;;;1.90;99.90;;;;;;5073527;28;20184;-90
2021/12/16 05:36:22;;;;;;;21.20;17.10;;;1.80;99.90;;;;;;5077253;28;20178;-93
2021/12/16 05:38:48;;;;;;;19.57;16.63;;;1.80;99.90;;;;;;5073601;28;20239;-91
2021/12/16 05:41:18;;;;;;;21.97;16.77;;;1.80;99.90;;;;;;5072360;28;20200;-90
2021/12/16 05:43:45;;;;;;;24.43;17.17;;;1.70;99.90;;;;;;5074533;28;20181;-90
2021/12/16 05:46:12;;;;;;;21.10;17.17;;;1.70;99.90;;;;;;5076020;28;20540;-91
2021/12/16 05:48:42;;;;;;;21.67;16.87;;;1.80;99.90;;;;;;5073279;28;20177;-91
2021/12/16 05:51:27;;;;;;;20.27;16.50;;;1.70;99.90;;;;;;5072720;28;20210;-91
2021/12/16 05:53:54;;;;;;;22.27;17.17;;;1.80;99.90;;;;;;5072084;28;20234;-91
2021/12/16 05:56:20;;;;;;;23.43;17.30;;;1.70;99.90;;;;;;5071981;28;20184;-91
2021/12/16 05:58:46;;;;;;;23.67;17.17;;;1.70;99.90;;;;;;5073151;28;20189;-90
2021/12/16 06:01:16;;;;;;;20.70;16.77;;;1.60;99.90;;;;;;5084588;28;20184;-90
2021/12/16 06:03:43;;;;;;;23.80;17.33;;;1.70;99.90;;;;;;5089011;28;20191;-90
2021/12/16 06:06:10;;;;;;;23.37;18.70;;;1.70;99.90;;;;;;5078216;28;20716;-89
2021/12/16 06:08:37;;;;;;;22.10;17.77;;;1.60;99.90;;;;;;5075573;28;20180;-89
2021/12/16 06:13:49;;;;;;;22.27;17.97;;;1.60;99.90;;;;;;5071989;28;20526;-90
2021/12/16 06:27:20;;;;;;;21.80;16.50;;;1.60;99.90;;;;;;5071765;28;20210;-89
2021/12/16 06:29:48;;;;;;;21.90;15.90;;;1.50;99.90;;;;;;5070012;28;20213;-89
2021/12/16 06:32:15;;;;;;;20.43;16.23;;;1.60;99.90;;;;;;5070204;28;20233;-89
2021/12/16 06:34:42;;;;;;;20.33;16.03;;;1.60;99.90;;;;;;5071442;28;20175;-91
2021/12/16 06:37:11;;;;;;;20.40;15.13;;;1.50;99.90;;;;;;5075275;28;20236;-90
2021/12/16 06:39:37;;;;;;;18.07;15.17;;;1.60;99.90;;;;;;5071481;28;20186;-89
2021/12/16 06:42:06;;;;;;;20.00;15.87;;;1.60;99.90;;;;;;5069533;28;20192;-89
2021/12/16 06:44:41;;;;;;;21.73;16.27;;;1.60;99.90;;;;;;5070950;28;20181;-90
2021/12/16 06:47:12;;;;;;;20.33;15.50;;;1.70;99.90;;;;;;5071811;28;20181;-90
2021/12/16 06:49:42;;;;;;;18.53;15.07;;;1.80;99.90;;;;;;5074818;28;20179;-91
2021/12/16 06:52:11;;;;;;;17.60;15.07;;;1.80;99.90;;;;;;5073425;28;20549;-91
2021/12/16 06:55:00;;;;;;;18.37;14.67;;;1.80;99.90;;;;;;5070623;28;20226;-92
2021/12/16 06:57:42;;;;;;;29.93;16.40;;;1.90;99.90;;;;;;5073088;28;20182;-90
2021/12/16 07:00:17;;;;;;;23.77;16.47;;;2.10;99.90;;;;;;5072186;28;20178;-91
2021/12/16 07:02:57;;;;;;;24.43;15.63;;;2.10;99.90;;;;;;5071358;28;20235;-91
2021/12/16 07:05:39;;;;;;;27.33;15.43;;;2.10;99.90;;;;;;5071103;28;20196;-90
2021/12/16 07:08:09;;;;;;;25.43;15.80;;;2.30;99.90;;;;;;5073952;28;20274;-93
2021/12/16 07:10:36;;;;;;;22.70;15.67;;;2.40;99.90;;;;;;5073167;28;20267;-91
2021/12/16 07:13:07;;;;;;;18.90;15.47;;;2.30;99.90;;;;;;5073216;28;20539;-90
2021/12/16 07:15:36;;;;;;;24.80;15.80;;;2.20;99.90;;;;;;5072025;28;20217;-91
2021/12/16 07:18:03;;;;;;;17.80;15.33;;;2.10;99.90;;;;;;5072212;28;20182;-91
2021/12/16 07:20:32;;;;;;;21.60;15.70;;;2.00;99.90;;;;;;5071443;28;20566;-91
2021/12/16 07:22:59;;;;;;;20.03;15.60;;;2.10;99.90;;;;;;5070803;28;20281;-91
2021/12/16 07:25:25;;;;;;;18.33;14.60;;;2.20;99.90;;;;;;5071209;28;20184;-91
2021/12/16 07:27:51;;;;;;;20.70;16.30;;;2.10;99.90;;;;;;5073132;28;20174;-91
2021/12/16 07:30:19;;;;;;;18.67;14.97;;;2.00;99.90;;;;;;5070241;28;20295;-90
2021/12/16 07:32:46;;;;;;;18.20;15.23;;;1.90;99.90;;;;;;5073705;28;20191;-92
2021/12/16 07:35:16;;;;;;;21.80;15.80;;;1.90;99.90;;;;;;5073393;28;20174;-92
2021/12/16 07:37:43;;;;;;;21.07;15.13;;;2.00;99.90;;;;;;5071161;28;20270;-92
2021/12/16 07:40:12;;;;;;;19.67;15.13;;;2.10;99.90;;;;;;5071330;28;20223;-91
2021/12/16 07:42:48;;;;;;;18.60;15.03;;;2.20;99.90;;;;;;5070554;28;20195;-92
2021/12/16 07:45:17;;;;;;;26.43;14.93;;;2.20;99.90;;;;;;5072457;28;20179;-90
2021/12/16 07:47:45;;;;;;;18.47;14.70;;;2.30;99.90;;;;;;5085449;28;20182;-91
2021/12/16 07:50:12;;;;;;;22.50;15.30;;;2.30;99.90;;;;;;5089819;28;20198;-90
2021/12/16 07:52:40;;;;;;;19.47;15.73;;;2.40;99.90;;;;;;5073733;28;20179;-90
2021/12/16 07:55:07;;;;;;;20.60;16.17;;;2.50;99.90;;;;;;5079565;28;20171;-90
2021/12/16 07:57:33;;;;;;;25.70;15.93;;;2.40;99.90;;;;;;5076770;28;20249;-91
2021/12/16 07:59:59;;;;;;;20.80;15.80;;;2.40;99.90;;;;;;5072654;28;20198;-90
2021/12/16 08:02:25;;;;;;;19.83;15.17;;;2.50;99.90;;;;;;5073884;28;20186;-94
2021/12/16 08:04:52;;;;;;;21.30;15.17;;;2.60;99.90;;;;;;5073862;28;20626;-93
2021/12/16 08:07:20;;;;;;;19.23;14.90;;;2.70;99.90;;;;;;5071031;28;20581;-94
2021/12/16 08:09:48;;;;;;;22.27;15.63;;;2.70;99.90;;;;;;5074431;28;20179;-91
2021/12/16 08:12:16;;;;;;;20.03;15.50;;;2.70;99.90;;;;;;5055318;28;20241;-89
2021/12/16 08:14:43;;;;;;;21.80;16.20;;;2.80;99.90;;;;;;5074334;28;20160;-91
2021/12/16 08:17:09;;;;;;;22.20;16.60;;;2.90;99.90;;;;;;5073915;28;20181;-91
2021/12/16 08:19:36;;;;;;;24.30;16.50;;;2.90;99.90;;;;;;5072234;28;20210;-94
2021/12/16 08:22:03;;;;;;;20.97;16.53;;;2.90;99.90;;;;;;5073626;28;20180;-89
2021/12/16 08:24:29;;;;;;;20.63;15.53;;;2.90;99.90;;;;;;5073716;28;20171;-89
2021/12/16 08:26:55;;;;;;;19.00;15.13;;;2.90;99.90;;;;;;5071419;28;20201;-96
2021/12/16 08:29:21;;;;;;;20.03;15.73;;;2.90;99.90;;;;;;5071265;28;20178;-95
2021/12/16 08:31:48;;;;;;;20.93;16.07;;;2.90;99.90;;;;;;5069890;28;20215;-94
2021/12/16 08:34:16;;;;;;;24.43;16.40;;;3.00;99.90;;;;;;5071075;28;20175;-95
2021/12/16 08:36:42;;;;;;;23.50;16.83;;;2.90;99.90;;;;;;5069973;28;20191;-94
2021/12/16 08:39:09;;;;;;;21.50;17.37;;;3.00;99.90;;;;;;5082164;28;20183;-93
2021/12/16 08:41:42;;;;;;;21.63;17.03;;;2.90;99.90;;;;;;5076782;28;20183;-93
2021/12/16 08:44:09;;;;;;;19.30;16.10;;;3.00;99.90;;;;;;5070294;28;20184;-93
2021/12/16 08:46:40;;;;;;;24.17;17.73;;;3.00;99.90;;;;;;5070902;28;20176;-94
2021/12/16 08:49:07;;;;;;;19.50;16.50;;;3.00;99.90;;;;;;5076884;28;20645;-93
2021/12/16 08:51:37;;;;;;;25.03;16.97;;;3.10;99.90;;;;;;5071099;28;20316;-90
2021/12/16 08:54:04;;;;;;;23.27;18.17;;;3.20;99.90;;;;;;5070969;28;20213;-95
2021/12/16 08:56:30;;;;;;;20.43;16.23;;;3.20;99.90;;;;;;5070617;28;20661;-92
2021/12/16 08:58:59;;;;;;;21.30;17.37;;;3.20;99.90;;;;;;5071913;28;20175;-90
2021/12/16 09:01:30;;;;;;;20.20;15.47;;;3.40;99.90;;;;;;5069742;28;20184;-91
2021/12/16 09:03:57;;;;;;;23.50;17.30;;;3.30;99.90;;;;;;5071700;28;20647;-91
2021/12/16 09:06:23;;;;;;;25.20;16.90;;;3.30;99.90;;;;;;5081459;28;20226;-89
2021/12/16 09:08:50;;;;;;;23.10;17.03;;;3.40;99.90;;;;;;5094971;28;20207;-90
2021/12/16 09:11:21;;;;;;;26.40;16.67;;;3.40;99.90;;;;;;5095034;28;20261;-89
2021/12/16 09:13:50;;;;;;;19.17;15.73;;;3.30;99.90;;;;;;5076797;28;20170;-95
2021/12/16 09:16:19;;;;;;;20.30;16.27;;;3.30;99.90;;;;;;5078803;28;20216;-91
2021/12/16 09:18:46;;;;;;;24.03;17.17;;;3.30;99.90;;;;;;5099810;28;20175;-93
2021/12/16 09:21:19;;;;;;;20.83;16.20;;;3.30;99.90;;;;;;5090541;28;20182;-90
2021/12/16 09:23:48;;;;;;;18.37;15.60;;;3.20;99.90;;;;;;5097937;28;20199;-94
2021/12/16 09:26:15;;;;;;;24.13;16.03;;;3.20;99.90;;;;;;5079704;28;20174;-93
2021/12/16 09:28:42;;;;;;;20.53;16.43;;;3.20;99.90;;;;;;5097207;28;20170;-91
2021/12/16 09:31:12;;;;;;;20.30;15.77;;;3.10;99.90;;;;;;5094453;28;20198;-94
2021/12/16 09:33:43;;;;;;;20.97;14.77;;;3.10;99.90;;;;;;5118354;28;20614;-94
2021/12/16 09:36:12;;;;;;;17.83;14.50;;;3.10;99.90;;;;;;5119167;28;20160;-96
2021/12/16 09:38:40;;;;;;;21.00;14.93;;;3.00;99.90;;;;;;5117511;28;20192;-94
2021/12/16 09:41:06;;;;;;;18.50;14.37;;;3.10;99.90;;;;;;5107918;28;20179;-93
2021/12/16 09:43:40;;;;;;;23.23;15.77;;;3.20;99.90;;;;;;5081647;28;20251;-96
2021/12/16 09:46:10;;;;;;;19.27;16.17;;;3.20;99.90;;;;;;5098561;28;20173;-89
2021/12/16 09:48:37;;;;;;;20.90;15.00;;;3.30;99.90;;;;;;5100661;28;20287;-90
2021/12/16 09:51:06;;;;;;;24.27;15.77;;;3.40;99.90;;;;;;5078427;28;20223;-96
2021/12/16 09:53:34;;;;;;;19.43;15.43;;;3.40;99.90;;;;;;5077972;28;20620;-89
2021/12/16 09:56:09;;;;;;;18.63;15.10;;;3.30;99.90;;;;;;5077738;28;20686;-91
2021/12/16 09:58:39;;;;;;;19.43;15.20;;;3.30;99.90;;;;;;5077183;28;20178;-90
2021/12/16 10:01:06;;;;;;;23.33;14.83;;;3.40;99.90;;;;;;5076328;28;20274;-90
2021/12/16 10:03:32;;;;;;;19.23;14.53;;;3.40;99.90;;;;;;5095730;28;20183;-93
2021/12/16 10:05:58;;;;;;;19.80;15.70;;;3.50;99.90;;;;;;5096381;28;20505;-91
2021/12/16 10:08:24;;;;;;;18.53;15.53;;;3.50;99.90;;;;;;5096380;28;20685;-93
2021/12/16 10:10:50;;;;;;;24.13;15.10;;;3.50;99.90;;;;;;5096779;28;20293;-93
2021/12/16 10:13:23;;;;;;;19.63;15.30;;;3.50;99.90;;;;;;5096098;28;20184;-90
2021/12/16 10:18:21;;;;;;;23.00;15.50;;;3.60;99.90;;;;;;5093266;28;20658;-90
2021/12/16 10:20:56;;;;;;;18.43;14.83;;;3.60;99.90;;;;;;5074985;28;20191;-91
2021/12/16 10:23:32;;;;;;;21.33;15.03;;;3.70;99.90;;;;;;5093540;28;20158;-89
2021/12/16 10:26:02;;;;;;;15.13;13.13;;;3.80;99.90;;;;;;5098727;28;20176;-91
2021/12/16 10:28:35;;;;;;;17.23;14.07;;;3.90;99.90;;;;;;5076666;28;20736;-92
2021/12/16 10:31:10;;;;;;;19.50;13.73;;;3.90;99.90;;;;;;5085320;28;20262;-89
2021/12/16 10:34:01;;;;;;;20.17;14.03;;;4.00;99.90;;;;;;5086276;28;20170;-91
2021/12/16 10:36:33;;;;;;;18.90;13.77;;;4.10;99.90;;;;;;5089755;28;20491;-90
2021/12/16 10:39:07;;;;;;;19.20;14.77;;;4.30;99.90;;;;;;5082512;28;20171;-90
2021/12/16 10:41:43;;;;;;;20.77;14.00;;;4.30;99.90;;;;;;5101973;28;20155;-88
2021/12/16 10:44:25;;;;;;;18.10;14.53;;;4.40;99.90;;;;;;5101093;28;20158;-94
2021/12/16 10:47:00;;;;;;;17.27;13.63;;;4.50;99.90;;;;;;5081896;28;20166;-89
2021/12/16 10:49:43;;;;;;;17.73;13.77;;;4.50;99.90;;;;;;5081367;28;20244;-89
2021/12/16 10:52:18;;;;;;;20.53;14.40;;;4.60;99.90;;;;;;5100474;28;20316;-96
2021/12/16 10:54:49;;;;;;;21.33;15.73;;;4.60;99.90;;;;;;5100036;28;20166;-93
2021/12/16 10:57:25;;;;;;;23.30;15.57;;;4.70;99.90;;;;;;5099983;28;20159;-91
2021/12/16 11:00:06;;;;;;;20.80;15.17;;;4.70;99.90;;;;;;5099264;28;20157;-89
2021/12/16 11:02:36;;;;;;;16.83;13.93;;;4.70;99.90;;;;;;5099488;28;20161;-89
2021/12/16 11:05:23;;;;;;;15.23;13.60;;;4.80;99.90;;;;;;5084512;28;20538;-89
2021/12/16 11:07:54;;;;;;;19.20;14.40;;;5.00;99.90;;;;;;5081298;28;20219;-94
2021/12/16 11:10:20;;;;;;;20.43;14.10;;;5.10;99.90;;;;;;5082071;28;20199;-90
2021/12/16 11:12:56;;;;;;;20.07;15.50;;;5.00;99.90;;;;;;5087378;28;20182;-90
2021/12/16 11:15:31;;;;;;;22.33;15.73;;;4.90;99.90;;;;;;5091563;28;20166;-93
2021/12/16 11:18:20;;;;;;;30.10;17.00;;;4.90;99.90;;;;;;5096388;28;20147;-95
2021/12/16 11:21:04;;;;;;;26.20;17.00;;;4.90;99.90;;;;;;5085457;28;20187;-90
2021/12/16 11:23:33;;;;;;;27.53;18.23;;;4.90;99.90;;;;;;5074960;28;20166;-91
2021/12/16 11:26:18;;;;;;;28.63;19.63;;;4.90;99.90;;;;;;5057264;28;20244;-92
2021/12/16 11:28:49;;;;;;;26.90;20.10;;;4.90;99.90;;;;;;5074700;28;20167;-92
2021/12/16 11:31:25;;;;;;;24.60;19.43;;;5.00;99.90;;;;;;5069398;28;20213;-94
2021/12/16 11:34:00;;;;;;;24.73;18.33;;;4.90;99.90;;;;;;5072995;28;20201;-92
2021/12/16 11:36:40;;;;;;;20.73;16.53;;;5.00;99.90;;;;;;5073174;28;20328;-90
2021/12/16 11:39:09;;;;;;;17.73;15.03;;;5.00;99.90;;;;;;5073387;28;20234;-90
2021/12/16 11:41:40;;;;;;;18.23;15.13;;;5.10;99.90;;;;;;5074163;28;20163;-91
2021/12/16 11:44:23;;;;;;;17.20;14.30;;;5.10;99.90;;;;;;5073032;28;20182;-94
2021/12/16 11:47:10;;;;;;;20.03;14.47;;;5.20;99.90;;;;;;5073746;28;20285;-90
2021/12/16 11:49:41;;;;;;;16.07;14.17;;;5.50;99.90;;;;;;5074235;28;20174;-92
2021/12/16 11:52:12;;;;;;;21.37;14.10;;;5.60;99.90;;;;;;5072517;28;20233;-92
2021/12/16 11:54:42;;;;;;;19.80;14.13;;;5.60;99.90;;;;;;5075617;28;20175;-92
2021/12/16 11:57:27;;;;;;;15.93;12.67;;;5.70;99.90;;;;;;5076926;28;20244;-95
2021/12/16 11:59:58;;;;;;;17.40;13.57;;;5.90;99.90;;;;;;5081867;28;20254;-96
2021/12/16 12:02:33;;;;;;;19.23;13.70;;;5.90;99.90;;;;;;5082077;28;20161;-92
2021/12/16 12:05:26;;;;;;;16.57;12.70;;;6.00;99.90;;;;;;5080316;28;20219;-92
2021/12/16 12:07:57;;;;;;;16.93;12.13;;;6.10;99.90;;;;;;5078251;28;20690;-90
2021/12/16 12:10:40;;;;;;;12.93;10.50;;;6.30;99.90;;;;;;5080955;28;20298;-89
2021/12/16 12:13:08;;;;;;;14.33;11.07;;;6.50;99.90;;;;;;5081174;28;20176;-93
2021/12/16 12:15:53;;;;;;;14.30;11.57;;;6.60;99.90;;;;;;5081161;28;20178;-90
2021/12/16 12:18:44;;;;;;;11.87;10.30;;;6.70;99.90;;;;;;5080527;28;20259;-91
2021/12/16 12:21:39;;;;;;;13.60;10.83;;;6.80;99.90;;;;;;5079686;28;20184;-92
2021/12/16 12:24:19;;;;;;;12.30;10.27;;;7.00;99.90;;;;;;5000825;28;20224;-90
2021/12/16 12:26:54;;;;;;;12.63;10.80;;;6.90;99.90;;;;;;5003124;28;20278;-91
2021/12/16 12:29:28;;;;;;;12.47;10.60;;;6.90;99.90;;;;;;5017698;28;20187;-91
2021/12/16 12:32:04;;;;;;;12.87;9.97;;;6.90;99.90;;;;;;5017706;28;20210;-89
2021/12/16 12:34:32;;;;;;;11.00;9.00;;;7.00;99.90;;;;;;5001798;28;20233;-90
2021/12/16 12:37:03;;;;;;;13.67;8.97;;;7.00;99.90;;;;;;5000421;28;20182;-90
2021/12/16 12:39:34;;;;;;;14.13;9.90;;;6.90;99.90;;;;;;5020202;28;20643;-93
2021/12/16 12:42:00;;;;;;;21.17;9.57;;;6.90;99.90;;;;;;5020909;28;20341;-91
2021/12/16 12:44:26;;;;;;;11.17;9.37;;;6.90;99.90;;;;;;5021063;28;20527;-92
2021/12/16 12:46:53;;;;;;;13.57;9.33;;;6.80;99.90;;;;;;5021081;28;20178;-90
2021/12/16 12:49:25;;;;;;;14.93;9.57;;;6.70;99.90;;;;;;5004354;28;20171;-91
2021/12/16 12:52:01;;;;;;;14.20;9.60;;;6.80;99.90;;;;;;5004815;28;20290;-92
2021/12/16 12:54:29;;;;;;;16.27;10.13;;;6.70;99.90;;;;;;5004785;28;20192;-91
2021/12/16 12:56:59;;;;;;;13.90;9.60;;;6.60;99.90;;;;;;5021616;28;20270;-90
2021/12/16 12:59:38;;;;;;;10.40;8.77;;;6.60;99.90;;;;;;5014690;28;20227;-95
2021/12/16 13:02:38;;;;;;;11.97;9.13;;;6.60;99.90;;;;;;5096884;28;20191;-95
2021/12/16 13:05:17;;;;;;;11.57;9.60;;;6.60;99.90;;;;;;5018391;28;20183;-89
2021/12/16 13:07:51;;;;;;;11.10;9.40;;;6.50;99.90;;;;;;5017318;28;20232;-92
2021/12/16 13:10:24;;;;;;;10.50;9.20;;;6.40;99.90;;;;;;4999583;28;20307;-90
2021/12/16 13:13:04;;;;;;;15.67;9.20;;;6.40;99.90;;;;;;5014775;28;20196;-93
2021/12/16 13:26:41;;;;;;;9.83;8.43;;;6.50;99.90;;;;;;5007091;28;20198;-89
2021/12/16 13:32:27;;;;;;;9.03;8.23;;;6.30;99.90;;;;;;5004671;28;20198;-94
2021/12/16 13:35:09;;;;;;;14.77;8.37;;;6.30;99.90;;;;;;5007058;28;20222;-93
2021/12/16 13:37:43;;;;;;;10.60;8.23;;;6.20;99.90;;;;;;5007130;28;20163;-91
2021/12/16 13:40:19;;;;;;;9.57;7.87;;;6.20;99.90;;;;;;5041285;28;20211;-91
2021/12/16 13:42:53;;;;;;;10.70;8.37;;;6.20;99.90;;;;;;5084969;28;20177;-89
2021/12/16 13:45:29;;;;;;;11.27;8.30;;;6.20;99.90;;;;;;5087624;28;20154;-91
2021/12/16 14:02:13;;;;;;;10.20;8.57;;;6.10;99.90;;;;;;5095359;28;20169;-90
2021/12/16 14:10:12;;;;;;;8.43;7.63;;;6.00;99.90;;;;;;5089562;28;20547;-89
2021/12/16 14:15:25;;;;;;;8.43;7.60;;;6.00;99.90;;;;;;5082626;28;20203;-89
2021/12/16 14:17:56;;;;;;;8.87;7.83;;;6.00;99.90;;;;;;5081657;28;20172;-90
2021/12/16 14:23:35;;;;;;;10.70;7.60;;;6.00;99.90;;;;;;5081486;28;20206;-91
2021/12/16 14:32:26;;;;;;;11.60;8.20;;;5.90;99.90;;;;;;5074564;28;20209;-91
2021/12/16 14:34:55;;;;;;;9.63;8.30;;;5.90;99.90;;;;;;5074707;28;20259;-89
2021/12/16 14:37:32;;;;;;;9.10;7.90;;;5.90;99.90;;;;;;5056250;28;20174;-90
2021/12/16 14:40:11;;;;;;;9.73;7.83;;;5.90;99.90;;;;;;5073135;28;20644;-90
2021/12/16 14:45:34;;;;;;;9.53;8.47;;;5.80;99.90;;;;;;5084578;28;20170;-90
2021/12/16 14:48:35;;;;;;;10.47;8.10;;;5.70;99.90;;;;;;5072930;28;20205;-88
2021/12/16 14:50:57;;;;;;;10.90;8.80;;;5.70;99.90;;;;;;5076175;28;20215;-88
2021/12/16 14:53:36;;;;;;;13.47;8.10;;;5.60;99.90;;;;;;5071823;28;20195;-88
2021/12/16 14:56:14;;;;;;;9.60;7.97;;;5.60;99.90;;;;;;5070805;28;20180;-90
2021/12/16 14:58:43;;;;;;;12.23;8.47;;;5.60;99.90;;;;;;5071554;28;20209;-91
2021/12/16 15:01:16;;;;;;;8.60;7.70;;;5.60;99.90;;;;;;5052597;28;20224;-87
2021/12/16 15:03:44;;;;;;;9.70;8.40;;;5.70;99.90;;;;;;5053334;28;20176;-88
2021/12/16 15:06:20;;;;;;;11.97;7.97;;;5.80;99.90;;;;;;5052932;28;20736;-91
2021/12/16 15:09:08;;;;;;;12.37;8.57;;;5.90;99.90;;;;;;5071478;28;20188;-88
2021/12/16 15:14:38;;;;;;;14.80;11.37;;;5.90;99.90;;;;;;5074251;28;20324;-93
2021/12/16 15:37:16;;;;;;;10.17;9.00;;;5.80;99.90;;;;;;5072465;28;20188;-92
2021/12/16 15:40:30;;;;;;;12.20;8.60;;;5.90;99.90;;;;;;5061207;28;20182;-92
2021/12/16 15:42:50;;;;;;;10.73;8.53;;;5.90;99.90;;;;;;5072666;28;20674;-94
2021/12/16 15:45:27;;;;;;;10.93;8.13;;;5.90;99.90;;;;;;5053650;28;20170;-96
2021/12/16 15:48:14;;;;;;;9.97;8.93;;;5.90;99.90;;;;;;5054493;28;20170;-95
2021/12/16 15:50:46;;;;;;;9.83;8.50;;;5.90;99.90;;;;;;5071479;28;20222;-95
2021/12/16 15:53:16;;;;;;;12.90;8.60;;;5.90;99.90;;;;;;5054268;28;20534;-90
2021/12/16 15:55:52;;;;;;;15.47;9.37;;;5.90;99.90;;;;;;5053005;28;20167;-92
2021/12/16 15:58:26;;;;;;;9.90;8.90;;;5.90;99.90;;;;;;5054158;28;20183;-92
2021/12/16 16:00:57;;;;;;;12.00;8.17;;;5.90;99.90;;;;;;5053088;28;20254;-88
2021/12/16 16:03:28;;;;;;;8.87;7.67;;;6.00;99.90;;;;;;5053501;28;20536;-93
2021/12/16 16:05:58;;;;;;;9.43;8.30;;;6.00;99.90;;;;;;5054568;28;20164;-88
2021/12/16 16:08:26;;;;;;;11.43;8.17;;;6.00;99.90;;;;;;5053153;28;20183;-89
2021/12/16 16:11:00;;;;;;;10.27;8.13;;;6.00;99.90;;;;;;5071929;28;20285;-88
2021/12/16 16:13:30;;;;;;;10.00;8.07;;;6.00;99.90;;;;;;5057663;28;20270;-92
2021/12/16 16:16:01;;;;;;;9.00;8.10;;;6.00;99.90;;;;;;5060157;28;20183;-89
2021/12/16 16:21:24;;;;;;;9.47;8.27;;;5.90;99.90;;;;;;5081924;28;20179;-90
2021/12/16 16:23:55;;;;;;;13.27;9.30;;;5.90;99.90;;;;;;5062395;28;20580;-90
2021/12/16 16:26:22;;;;;;;9.93;8.93;;;5.90;99.90;;;;;;5060570;28;20181;-92
2021/12/16 16:28:52;;;;;;;13.20;9.13;;;5.90;99.90;;;;;;5061146;28;20343;-93
2021/12/16 16:31:21;;;;;;;10.60;8.70;;;5.90;99.90;;;;;;5065576;28;20209;-88
2021/12/16 16:33:48;;;;;;;13.73;9.43;;;6.00;99.90;;;;;;5076669;28;20162;-90
2021/12/16 16:36:19;;;;;;;15.47;9.63;;;6.10;99.90;;;;;;5077038;28;20250;-88
2021/12/16 16:38:54;;;;;;;10.90;9.20;;;6.00;99.90;;;;;;5062825;28;20178;-89
2021/12/16 16:41:26;;;;;;;11.83;9.50;;;6.00;99.90;;;;;;5061922;28;20700;-88
2021/12/16 16:43:56;;;;;;;12.97;8.60;;;6.10;99.90;;;;;;5061115;28;20182;-89
2021/12/16 16:46:53;;;;;;;12.40;8.90;;;6.10;99.90;;;;;;5059045;28;20275;-89
2021/12/16 16:49:47;;;;;;;12.87;9.57;;;6.10;99.90;;;;;;5035100;28;20232;-88
2021/12/16 16:52:27;;;;;;;13.27;11.17;;;6.10;99.90;;;;;;5060262;28;20210;-95
2021/12/16 16:55:31;;;;;;;11.40;10.10;;;6.10;99.90;;;;;;5078202;28;20156;-94